createdAt,value
2018-08-11T00:01:46.605Z,20.10
2018-08-11T00:04:15.133Z,20.10
2018-08-11T00:06:43.677Z,20.00
2018-08-11T00:09:12.589Z,20.00
2018-08-11T00:11:41.772Z,20.00
2018-08-11T00:14:10.640Z,19.90
2018-08-11T00:16:39.109Z,20.00
2018-08-11T00:19:07.665Z,20.00
2018-08-11T00:21:36.153Z,20.10
2018-08-11T00:24:04.957Z,20.10
2018-08-11T00:26:33.437Z,20.10
2018-08-11T00:29:01.997Z,20.10
2018-08-11T00:31:30.500Z,20.10
2018-08-11T00:33:59.057Z,20.10
2018-08-11T00:36:27.627Z,20.10
2018-08-11T00:38:56.101Z,20.20
2018-08-11T00:41:24.596Z,20.20
2018-08-11T00:43:53.105Z,20.20
2018-08-11T00:46:21.654Z,20.10
2018-08-11T00:48:50.156Z,20.10
2018-08-11T00:51:18.673Z,20.00
2018-08-11T00:53:47.250Z,20.00
2018-08-11T00:56:15.738Z,20.00
2018-08-11T00:58:44.241Z,19.90
2018-08-11T01:01:12.777Z,19.90
2018-08-11T01:03:41.329Z,19.80
2018-08-11T01:06:09.841Z,19.70
2018-08-11T01:08:38.352Z,19.70
2018-08-11T01:11:07.013Z,19.60
2018-08-11T01:13:35.489Z,19.70
2018-08-11T01:16:03.947Z,19.60
2018-08-11T01:18:32.478Z,19.50
2018-08-11T01:21:00.997Z,19.40
2018-08-11T01:23:29.561Z,19.40
2018-08-11T01:25:58.094Z,19.30
2018-08-11T01:28:26.609Z,19.30
2018-08-11T01:30:55.761Z,19.30
2018-08-11T01:33:24.202Z,19.20
2018-08-11T01:35:52.672Z,19.10
2018-08-11T01:38:21.198Z,19.10
2018-08-11T01:40:49.741Z,19.10
2018-08-11T01:43:18.257Z,19.00
2018-08-11T01:45:46.773Z,19.00
2018-08-11T01:48:15.257Z,19.00
2018-08-11T01:50:43.816Z,19.00
2018-08-11T01:53:12.322Z,19.00
2018-08-11T01:55:40.833Z,19.00
2018-08-11T01:58:09.390Z,19.00
2018-08-11T02:00:37.860Z,18.90
2018-08-11T02:03:06.397Z,18.90
2018-08-11T02:05:34.873Z,18.90
2018-08-11T02:08:03.357Z,18.90
2018-08-11T02:10:31.936Z,18.90
2018-08-11T02:13:00.530Z,18.90
2018-08-11T02:15:29.061Z,19.00
2018-08-11T02:17:57.602Z,18.90
2018-08-11T02:20:26.111Z,19.00
2018-08-11T02:22:54.571Z,18.90
2018-08-11T02:25:23.080Z,18.90
2018-08-11T02:27:51.554Z,18.90
2018-08-11T02:30:20.064Z,18.90
2018-08-11T02:32:48.576Z,18.90
2018-08-11T02:35:17.108Z,18.80
2018-08-11T02:37:45.641Z,18.90
2018-08-11T02:40:15.390Z,18.90
2018-08-11T02:42:43.942Z,18.80
2018-08-11T02:45:14.458Z,18.90
2018-08-11T02:47:42.997Z,18.90
2018-08-11T02:50:12.425Z,19.00
2018-08-11T02:52:41.518Z,19.00
2018-08-11T02:55:11.257Z,18.70
2018-08-11T02:57:39.750Z,18.60
2018-08-11T03:00:09.917Z,18.60
2018-08-11T03:02:38.693Z,18.50
2018-08-11T03:05:07.137Z,18.60
2018-08-11T03:07:35.791Z,18.50
2018-08-11T03:10:04.961Z,18.60
2018-08-11T03:12:33.498Z,18.70
2018-08-11T03:15:01.958Z,18.60
2018-08-11T03:17:30.482Z,18.60
2018-08-11T03:19:59.034Z,18.50
2018-08-11T03:22:27.542Z,18.50
2018-08-11T03:24:56.085Z,18.60
2018-08-11T03:27:24.581Z,18.60
2018-08-11T03:29:53.208Z,18.50
2018-08-11T03:32:21.652Z,18.60
2018-08-11T03:34:50.117Z,18.60
2018-08-11T03:37:18.590Z,18.60
2018-08-11T03:39:47.106Z,18.60
2018-08-11T03:42:15.802Z,18.50
2018-08-11T03:44:44.306Z,18.50
2018-08-11T03:47:13.367Z,18.50
2018-08-11T03:49:51.404Z,18.50
2018-08-11T03:52:26.912Z,18.60
2018-08-11T03:54:55.420Z,18.70
2018-08-11T03:57:26.821Z,18.70
2018-08-11T04:00:02.630Z,18.70
2018-08-11T04:02:35.433Z,18.70
2018-08-11T04:05:08.777Z,18.70
2018-08-11T04:07:43.176Z,18.70
2018-08-11T04:10:20.672Z,18.70
2018-08-11T04:12:54.686Z,18.80
2018-08-11T04:15:28.801Z,18.80
2018-08-11T04:18:03.105Z,18.80
2018-08-11T04:20:37.508Z,18.60
2018-08-11T04:23:17.181Z,18.50
2018-08-11T04:25:45.697Z,18.40
2018-08-11T04:28:22.277Z,18.30
2018-08-11T04:30:53.763Z,18.30
2018-08-11T04:33:30.264Z,18.30
2018-08-11T04:36:11.441Z,18.40
2018-08-11T04:38:54.989Z,18.50
2018-08-11T04:41:34.637Z,18.50
2018-08-11T04:44:13.729Z,18.50
2018-08-11T04:55:03.077Z,18.50
2018-08-11T04:57:33.822Z,18.50
2018-08-11T05:00:02.302Z,18.50
2018-08-11T05:02:30.764Z,18.50
2018-08-11T05:04:59.427Z,18.60
2018-08-11T05:07:27.886Z,18.70
2018-08-11T05:09:56.328Z,18.70
2018-08-11T05:12:24.849Z,18.80
2018-08-11T05:14:53.305Z,18.80
2018-08-11T05:17:21.741Z,18.70
2018-08-11T05:19:50.440Z,18.70
2018-08-11T05:22:19.110Z,18.70
2018-08-11T05:24:47.619Z,18.70
2018-08-11T05:27:16.093Z,18.60
2018-08-11T05:29:44.626Z,18.60
2018-08-11T05:32:13.109Z,18.50
2018-08-11T05:34:41.622Z,18.50
2018-08-11T05:37:10.097Z,18.50
2018-08-11T05:39:38.570Z,18.30
2018-08-11T05:42:07.273Z,18.20
2018-08-11T05:45:05.652Z,18.10
2018-08-11T05:47:53.890Z,18.10
2018-08-11T05:50:56.069Z,18.00
2018-08-11T05:53:24.577Z,18.00
2018-08-11T05:55:53.085Z,17.90
2018-08-11T05:58:21.608Z,17.90
2018-08-11T06:00:50.145Z,17.80
2018-08-11T06:03:18.975Z,17.80
2018-08-11T06:05:47.442Z,17.80
2018-08-11T06:08:15.961Z,17.70
2018-08-11T06:10:44.573Z,17.70
2018-08-11T06:13:13.049Z,17.70
2018-08-11T06:15:41.573Z,17.70
2018-08-11T06:18:10.143Z,17.70
2018-08-11T06:20:38.729Z,17.70
2018-08-11T06:23:07.219Z,17.80
2018-08-11T06:25:35.702Z,17.80
2018-08-11T06:28:04.259Z,17.90
2018-08-11T06:30:32.726Z,17.90
2018-08-11T06:33:01.221Z,17.90
2018-08-11T06:35:29.741Z,18.00
2018-08-11T06:37:58.318Z,18.00
2018-08-11T06:40:26.867Z,18.00
2018-08-11T06:42:55.381Z,18.00
2018-08-11T06:45:23.861Z,18.00
2018-08-11T06:47:52.295Z,18.10
2018-08-11T06:50:20.933Z,18.10
2018-08-11T06:52:49.413Z,18.10
2018-08-11T06:55:17.953Z,18.00
2018-08-11T06:57:47.449Z,18.10
2018-08-11T07:00:15.985Z,18.10
2018-08-11T07:02:44.450Z,18.20
2018-08-11T07:05:12.914Z,18.20
2018-08-11T07:07:41.408Z,18.30
2018-08-11T07:10:09.914Z,18.30
2018-08-11T07:12:38.385Z,18.30
2018-08-11T07:15:07.020Z,18.10
2018-08-11T07:17:35.587Z,18.20
2018-08-11T07:20:04.429Z,18.30
2018-08-11T07:22:32.920Z,18.30
2018-08-11T07:25:01.604Z,18.50
2018-08-11T07:27:30.093Z,18.50
2018-08-11T07:29:58.553Z,18.50
2018-08-11T07:32:27.089Z,18.60
2018-08-11T07:34:55.560Z,18.60
2018-08-11T07:37:24.038Z,18.70
2018-08-11T07:39:52.661Z,18.70
2018-08-11T07:42:21.149Z,18.70
2018-08-11T07:44:49.665Z,18.80
2018-08-11T07:47:18.182Z,18.80
2018-08-11T07:49:46.722Z,18.80
2018-08-11T07:52:15.209Z,18.80
2018-08-11T07:54:43.751Z,18.80
2018-08-11T07:57:12.233Z,18.80
2018-08-11T07:59:40.733Z,18.80
2018-08-11T08:02:09.270Z,18.80
2018-08-11T08:04:37.749Z,18.80
2018-08-11T08:07:06.317Z,18.80
2018-08-11T08:09:34.777Z,18.80
2018-08-11T08:12:03.289Z,18.80
2018-08-11T08:14:31.861Z,18.80
2018-08-11T08:17:00.325Z,18.80
2018-08-11T08:19:28.825Z,18.80
2018-08-11T08:21:57.329Z,18.80
2018-08-11T08:24:25.889Z,18.80
2018-08-11T08:26:54.364Z,18.80
2018-08-11T08:29:22.834Z,18.80
2018-08-11T08:31:51.338Z,18.80
2018-08-11T08:34:19.814Z,18.80
2018-08-11T08:36:48.336Z,18.80
2018-08-11T08:39:16.826Z,18.80
2018-08-11T08:41:45.321Z,18.80
2018-08-11T08:44:13.833Z,18.80
2018-08-11T08:46:42.752Z,18.80
2018-08-11T08:49:11.238Z,18.90
2018-08-11T08:51:39.828Z,18.90
2018-08-11T08:54:08.345Z,18.90
2018-08-11T08:56:36.889Z,18.90
2018-08-11T08:59:05.417Z,18.90
2018-08-11T09:01:34.157Z,18.90
2018-08-11T09:04:02.673Z,18.90
2018-08-11T09:06:31.161Z,18.90
2018-08-11T09:08:59.732Z,19.00
2018-08-11T09:11:28.265Z,19.00
2018-08-11T09:13:56.798Z,19.00
2018-08-11T09:16:25.274Z,19.00
2018-08-11T09:18:53.914Z,19.00
2018-08-11T09:21:22.386Z,19.10
2018-08-11T09:23:50.847Z,19.10
2018-08-11T09:26:19.389Z,19.10
2018-08-11T09:28:47.849Z,19.20
2018-08-11T09:31:16.373Z,19.20
2018-08-11T09:33:44.933Z,19.30
2018-08-11T09:36:13.432Z,19.30
2018-08-11T09:38:41.902Z,19.40
2018-08-11T09:41:10.706Z,19.40
2018-08-11T09:43:39.259Z,19.40
2018-08-11T09:46:07.810Z,19.40
2018-08-11T09:48:36.278Z,19.40
2018-08-11T09:51:04.948Z,19.40
2018-08-11T09:53:33.437Z,19.40
2018-08-11T09:56:01.929Z,19.40
2018-08-11T09:58:30.435Z,19.60
2018-08-11T10:01:03.118Z,19.60
2018-08-11T10:03:31.597Z,19.60
2018-08-11T10:06:00.054Z,19.70
2018-08-11T10:08:28.521Z,19.70
2018-08-11T10:10:57.050Z,19.70
2018-08-11T10:13:25.800Z,19.70
2018-08-11T10:15:54.349Z,19.70
2018-08-11T10:18:22.815Z,19.80
2018-08-11T10:20:51.332Z,20.00
2018-08-11T10:23:19.841Z,20.10
2018-08-11T10:25:48.319Z,20.00
2018-08-11T10:28:16.802Z,20.00
2018-08-11T10:30:45.369Z,20.00
2018-08-11T10:33:13.941Z,20.00
2018-08-11T10:35:42.465Z,20.00
2018-08-11T10:38:10.958Z,19.90
2018-08-11T10:40:39.762Z,19.90
2018-08-11T10:43:08.405Z,20.00
2018-08-11T10:45:36.885Z,20.00
2018-08-11T10:48:05.516Z,20.00
2018-08-11T10:50:34.009Z,20.10
2018-08-11T10:53:02.748Z,20.10
2018-08-11T10:55:31.408Z,20.20
2018-08-11T10:57:59.902Z,20.30
2018-08-11T11:00:28.485Z,20.30
2018-08-11T11:02:56.938Z,20.40
2018-08-11T11:05:25.425Z,20.40
2018-08-11T11:07:53.985Z,20.50
2018-08-11T11:10:22.459Z,20.60
2018-08-11T11:12:50.934Z,20.60
2018-08-11T11:15:19.468Z,20.60
2018-08-11T11:17:47.965Z,20.70
2018-08-11T11:20:16.465Z,20.60
2018-08-11T11:22:45.019Z,20.60
2018-08-11T11:25:13.473Z,20.50
2018-08-11T11:27:41.997Z,20.50
2018-08-11T11:30:10.550Z,20.50
2018-08-11T11:32:39.087Z,20.50
2018-08-11T11:35:07.633Z,20.40
2018-08-11T11:37:36.190Z,20.40
2018-08-11T11:40:05.462Z,20.40
2018-08-11T11:42:33.996Z,20.30
2018-08-11T11:45:02.595Z,20.30
2018-08-11T11:47:31.284Z,20.20
2018-08-11T11:49:59.768Z,20.20
2018-08-11T11:52:28.278Z,20.40
2018-08-11T11:54:56.818Z,20.40
2018-08-11T11:57:25.383Z,20.40
2018-08-11T11:59:53.876Z,20.50
2018-08-11T12:02:22.481Z,20.60
2018-08-11T12:04:51.053Z,20.60
2018-08-11T12:07:19.580Z,20.70
2018-08-11T12:09:48.153Z,20.70
2018-08-11T12:12:16.714Z,20.80
2018-08-11T12:14:45.462Z,20.80
2018-08-11T12:17:13.937Z,20.80
2018-08-11T12:19:42.465Z,20.80
2018-08-11T12:22:11.025Z,20.70
2018-08-11T12:24:39.523Z,20.70
2018-08-11T12:27:08.085Z,20.80
2018-08-11T12:29:36.609Z,20.80
2018-08-11T12:32:05.094Z,20.90
2018-08-11T12:34:33.682Z,20.80
2018-08-11T12:37:02.202Z,20.90
2018-08-11T12:39:30.700Z,20.90
2018-08-11T12:41:59.246Z,20.90
2018-08-11T12:44:27.743Z,20.90
2018-08-11T12:46:56.318Z,20.80
2018-08-11T12:49:25.188Z,20.80
2018-08-11T12:51:53.729Z,20.80
2018-08-11T12:54:22.226Z,20.90
2018-08-11T12:56:50.933Z,20.70
2018-08-11T12:59:19.425Z,20.80
2018-08-11T13:01:47.926Z,20.70
2018-08-11T13:04:16.563Z,20.70
2018-08-11T13:06:45.101Z,20.80
2018-08-11T13:09:13.605Z,20.70
2018-08-11T13:11:42.172Z,20.80
2018-08-11T13:14:10.719Z,20.90
2018-08-11T13:16:39.309Z,21.00
2018-08-11T13:19:07.901Z,20.90
2018-08-11T13:21:36.678Z,21.00
2018-08-11T13:24:05.922Z,21.20
2018-08-11T13:26:34.515Z,21.30
2018-08-11T13:29:03.102Z,21.50
2018-08-11T13:31:31.639Z,21.70
2018-08-11T13:34:00.227Z,21.80
2018-08-11T13:36:28.753Z,21.90
2018-08-11T13:38:57.249Z,22.00
2018-08-11T13:41:25.836Z,22.00
2018-08-11T13:43:54.333Z,22.30
2018-08-11T13:46:22.868Z,22.50
2018-08-11T13:48:51.534Z,22.40
2018-08-11T13:51:20.047Z,22.50
2018-08-11T13:53:48.558Z,22.80
2018-08-11T13:56:17.130Z,22.90
2018-08-11T13:58:45.687Z,23.00
2018-08-11T14:01:14.243Z,23.10
2018-08-11T14:03:42.842Z,23.10
2018-08-11T14:06:11.357Z,23.20
2018-08-11T14:08:39.858Z,23.00
2018-08-11T14:11:08.635Z,22.90
2018-08-11T14:13:37.246Z,23.10
2018-08-11T14:16:06.160Z,23.20
2018-08-11T14:18:34.702Z,23.40
2018-08-11T14:21:03.215Z,23.30
2018-08-11T14:23:31.745Z,23.30
2018-08-11T14:26:00.283Z,23.40
2018-08-11T14:28:28.851Z,23.40
2018-08-11T14:30:57.446Z,23.50
2018-08-11T14:33:26.117Z,23.50
2018-08-11T14:35:54.633Z,23.60
2018-08-11T14:38:23.113Z,23.60
2018-08-11T14:40:51.720Z,23.60
2018-08-11T14:43:20.257Z,23.60
2018-08-11T14:45:48.853Z,23.70
2018-08-11T14:48:17.353Z,23.80
2018-08-11T14:50:46.231Z,23.40
2018-08-11T14:53:14.807Z,23.50
2018-08-11T14:55:43.365Z,23.40
2018-08-11T14:58:12.648Z,23.30
2018-08-11T15:00:41.167Z,23.40
2018-08-11T15:03:10.548Z,23.60
2018-08-11T15:05:39.082Z,23.20
2018-08-11T15:08:07.674Z,23.20
2018-08-11T15:10:36.226Z,23.30
2018-08-11T15:13:04.750Z,23.50
2018-08-11T15:15:33.259Z,23.50
2018-08-11T15:18:01.897Z,23.50
2018-08-11T15:20:30.449Z,23.50
2018-08-11T15:22:59.079Z,23.40
2018-08-11T15:25:27.623Z,23.40
2018-08-11T15:27:56.117Z,23.50
2018-08-11T15:30:24.658Z,23.30
2018-08-11T15:32:53.203Z,23.30
2018-08-11T15:35:21.776Z,23.30
2018-08-11T15:37:50.350Z,23.40
2018-08-11T15:40:18.892Z,23.30
2018-08-11T15:42:47.465Z,23.10
2018-08-11T15:45:15.969Z,23.10
2018-08-11T15:47:44.487Z,23.30
2018-08-11T15:50:13.033Z,23.20
2018-08-11T15:52:41.553Z,23.20
2018-08-11T15:55:10.039Z,23.10
2018-08-11T15:57:38.551Z,23.30
2018-08-11T16:00:08.074Z,23.30
2018-08-11T16:02:36.915Z,23.30
2018-08-11T16:05:05.631Z,23.20
2018-08-11T16:07:34.117Z,23.30
2018-08-11T16:10:02.717Z,23.20
2018-08-11T16:12:31.341Z,23.10
2018-08-11T16:14:59.913Z,23.00
2018-08-11T16:17:28.581Z,23.20
2018-08-11T16:19:57.077Z,23.40
2018-08-11T16:22:25.602Z,23.40
2018-08-11T16:24:54.382Z,23.50
2018-08-11T16:27:22.967Z,23.50
2018-08-11T16:29:51.546Z,23.50
2018-08-11T16:32:20.162Z,23.20
2018-08-11T16:34:48.677Z,23.10
2018-08-11T16:37:17.231Z,23.30
2018-08-11T16:39:45.816Z,23.00
2018-08-11T16:42:14.351Z,22.90
2018-08-11T16:44:42.890Z,22.80
2018-08-11T16:47:11.472Z,22.70
2018-08-11T16:49:40.042Z,22.60
2018-08-11T16:52:08.614Z,22.60
2018-08-11T16:54:37.138Z,22.50
2018-08-11T16:57:05.805Z,22.40
2018-08-11T16:59:34.505Z,22.40
2018-08-11T17:02:03.023Z,22.30
2018-08-11T17:04:32.366Z,22.30
2018-08-11T17:07:01.025Z,22.20
2018-08-11T17:09:29.572Z,22.10
2018-08-11T17:11:58.130Z,22.10
2018-08-11T17:14:26.787Z,22.10
2018-08-11T17:16:55.285Z,22.00
2018-08-11T17:19:23.806Z,21.90
2018-08-11T17:21:52.408Z,21.90
2018-08-11T17:24:21.034Z,21.80
2018-08-11T17:26:49.597Z,21.80
2018-08-11T17:29:18.162Z,21.80
2018-08-11T17:31:46.727Z,21.80
2018-08-11T17:34:15.324Z,21.80
2018-08-11T17:36:43.917Z,21.80
2018-08-11T17:39:12.620Z,21.60
2018-08-11T17:41:41.332Z,21.60
2018-08-11T17:44:09.947Z,21.50
2018-08-11T17:46:38.503Z,21.50
2018-08-11T17:49:07.123Z,21.50
2018-08-11T17:51:35.647Z,21.50
2018-08-11T17:54:04.312Z,21.50
2018-08-11T17:56:32.886Z,21.50
2018-08-11T17:59:01.456Z,21.40
2018-08-11T18:01:29.983Z,21.40
2018-08-11T18:03:58.560Z,21.30
2018-08-11T18:06:27.226Z,21.20
2018-08-11T18:08:55.726Z,21.10
2018-08-11T18:11:24.340Z,21.00
2018-08-11T18:13:53.068Z,21.10
2018-08-11T18:16:21.622Z,21.10
2018-08-11T18:18:50.234Z,21.10
2018-08-11T18:21:18.771Z,21.00
2018-08-11T18:23:47.567Z,20.90
2018-08-11T18:26:16.165Z,20.70
2018-08-11T18:28:44.716Z,20.70
2018-08-11T18:31:13.318Z,20.60
2018-08-11T18:33:41.827Z,20.60
2018-08-11T18:36:11.347Z,20.60
2018-08-11T18:38:39.969Z,20.60
2018-08-11T18:41:08.561Z,20.50
2018-08-11T18:43:37.109Z,20.40
2018-08-11T18:46:05.803Z,20.40
2018-08-11T18:48:34.750Z,20.40
2018-08-11T18:51:03.369Z,20.40
2018-08-11T18:53:31.966Z,20.40
2018-08-11T18:56:00.663Z,20.30
2018-08-11T18:58:29.308Z,20.20
2018-08-11T19:00:57.911Z,20.20
2018-08-11T19:03:26.517Z,20.00
2018-08-11T19:05:55.183Z,19.90
2018-08-11T19:08:23.871Z,19.90
2018-08-11T19:10:52.552Z,19.90
2018-08-11T19:13:21.245Z,19.90
2018-08-11T19:15:49.843Z,19.90
2018-08-11T19:18:18.424Z,19.90
2018-08-11T19:20:47.057Z,19.90
2018-08-11T19:23:15.750Z,19.90
2018-08-11T19:25:44.466Z,19.90
2018-08-11T19:28:13.019Z,19.90
2018-08-11T19:30:41.800Z,19.80
2018-08-11T19:33:10.422Z,19.80
2018-08-11T19:35:39.127Z,19.80
2018-08-11T19:38:07.940Z,19.80
2018-08-11T19:40:36.610Z,19.70
2018-08-11T19:43:05.244Z,19.70
2018-08-11T19:45:33.913Z,19.70
2018-08-11T19:48:02.687Z,19.60
2018-08-11T19:50:31.394Z,19.50
2018-08-11T19:52:59.971Z,19.50
2018-08-11T19:55:28.573Z,19.50
2018-08-11T19:57:57.281Z,19.50
2018-08-11T20:00:26.431Z,19.40
2018-08-11T20:02:55.080Z,19.50
2018-08-11T20:05:23.737Z,19.40
2018-08-11T20:07:52.590Z,19.40
2018-08-11T20:10:21.211Z,19.30
2018-08-11T20:12:49.984Z,19.30
2018-08-11T20:15:18.652Z,19.30
2018-08-11T20:17:48.069Z,19.20
2018-08-11T20:20:16.781Z,19.20
2018-08-11T20:22:46.213Z,19.20
2018-08-11T20:25:14.973Z,19.10
2018-08-11T20:27:43.529Z,19.10
2018-08-11T20:30:12.297Z,19.10
2018-08-11T20:32:40.889Z,19.10
2018-08-11T20:35:09.574Z,19.10
2018-08-11T20:37:38.227Z,19.10
2018-08-11T20:40:06.834Z,19.00
2018-08-11T20:42:35.569Z,19.10
2018-08-11T20:45:05.020Z,19.00
2018-08-11T20:47:33.904Z,19.00
2018-08-11T20:50:02.437Z,19.00
2018-08-11T20:52:31.018Z,19.00
2018-08-11T20:55:01.274Z,19.00
2018-08-11T20:57:29.885Z,18.90
2018-08-11T20:59:58.567Z,18.90
2018-08-11T21:02:27.101Z,18.80
2018-08-11T21:04:55.854Z,18.80
2018-08-11T21:07:25.366Z,18.80
2018-08-11T21:09:54.022Z,18.80
2018-08-11T21:12:22.636Z,18.80
2018-08-11T21:14:51.274Z,18.80
2018-08-11T21:17:19.874Z,18.70
2018-08-11T21:19:48.522Z,18.70
2018-08-11T21:22:17.178Z,18.70
2018-08-11T21:24:46.363Z,18.60
2018-08-11T21:27:15.045Z,18.60
2018-08-11T21:29:43.636Z,18.60
2018-08-11T21:32:12.344Z,18.50
2018-08-11T21:34:41.047Z,18.50
2018-08-11T21:37:09.553Z,18.40
2018-08-11T21:39:38.173Z,18.40
2018-08-11T21:42:06.931Z,18.30
2018-08-11T21:44:35.535Z,18.30
2018-08-11T21:47:04.681Z,18.20
2018-08-11T21:49:33.455Z,18.20
2018-08-11T21:52:02.104Z,18.20
2018-08-11T21:54:30.645Z,18.20
2018-08-11T21:56:59.395Z,18.10
2018-08-11T21:59:28.070Z,18.10
2018-08-11T22:01:56.756Z,18.10
2018-08-11T22:04:29.636Z,18.00
2018-08-11T22:06:58.271Z,18.00
2018-08-11T22:09:26.872Z,17.90
2018-08-11T22:11:55.459Z,17.90
2018-08-11T22:14:24.088Z,17.80
2018-08-11T22:16:52.795Z,17.70
2018-08-11T22:19:21.378Z,17.60
2018-08-11T22:21:49.990Z,17.60
2018-08-11T22:24:18.735Z,17.60
2018-08-11T22:26:47.469Z,17.60
2018-08-11T22:29:16.293Z,17.60
2018-08-11T22:31:45.048Z,17.50
2018-08-11T22:34:13.653Z,17.50
2018-08-11T22:36:42.275Z,17.50
2018-08-11T22:39:11.807Z,17.50
2018-08-11T22:41:40.712Z,17.40
2018-08-11T22:44:09.354Z,17.50
2018-08-11T22:46:37.954Z,17.40
2018-08-11T22:49:06.629Z,17.40
2018-08-11T22:51:35.261Z,17.40
2018-08-11T22:54:03.876Z,17.40
2018-08-11T22:56:32.678Z,17.50
2018-08-11T22:59:01.346Z,17.50
2018-08-11T23:01:29.976Z,17.50
2018-08-11T23:03:58.693Z,17.50
2018-08-11T23:06:27.208Z,17.40
2018-08-11T23:08:55.850Z,17.40
2018-08-11T23:11:24.510Z,17.40
2018-08-11T23:13:53.301Z,17.40
2018-08-11T23:16:21.874Z,17.40
2018-08-11T23:18:50.511Z,17.40
2018-08-11T23:21:19.198Z,17.40
2018-08-11T23:23:47.773Z,17.40
2018-08-11T23:26:16.343Z,17.40
2018-08-11T23:28:44.991Z,17.40
2018-08-11T23:31:13.644Z,17.40
2018-08-11T23:33:42.184Z,17.40
2018-08-11T23:36:10.772Z,17.40
2018-08-11T23:38:39.346Z,17.50
2018-08-11T23:41:08.087Z,17.50
2018-08-11T23:43:36.651Z,17.50
2018-08-11T23:46:05.323Z,17.60
2018-08-11T23:48:33.925Z,17.60
2018-08-11T23:51:02.582Z,17.60
2018-08-11T23:53:31.103Z,17.60
2018-08-11T23:55:59.683Z,17.60
2018-08-11T23:58:28.369Z,17.60
